Domov               UVHVVR             MKGP            O straneh              
ZDRAVSTVENO VARSTVO RASTLIN
  MREŽA AGROMET. POSTAJ
 ► PROGNOSTIČNA OBVESTILA
AGROMETEOROLOŠKI PODATKI -
ARSO
OBVLADOVANJE TVEGANJ ZARADI
NEUGODNIH VREMENSKIH RAZMER
  ► NARAVNE NESREČE
  ► SUŠA/MOČA
  ► NAMAKANJE
  ► ŽLED (gozdarstvo)
KARTOGRAFSKI PRIKAZI
SPLETNE POVEZAVE
PROJEKTI IN PUBLIKACIJE

AGROMETEOROLOŠKA MREŽA: VREMENSKE POSTAJE IN FENOLOŠKA OPAZOVANJA

Pregled podatkov za lokacijo Artiče, meteorološka postaja 42800

Pregled senzorjev na lokaciji

ID Ime Zadnja
vrednost
Datum
zadnje
spremembe
Tip
senzorja
4298 Omočenost lista (U) 0 U 20.6.2018 16:30 A730WET
3778 Padavine (mm) 0 mm 20.6.2018 16:30 Rain-O-Matic
2447 Relativna vlaga 2 m (% RH) 45,32 % RH 20.6.2018 16:30 50YA
2446 Temperatura 2 m (°C) 28,99 °C 20.6.2018 16:30 50YA

Pregled podatkov zadnjih 24 ur

Zap.
št.
Datum in čas Artiče
Omočenost
lista
Padavine Relativna
vlaga
2
m
Temperatura
2
m
1 20.6.2018 17:00
2 20.6.2018 16:30
3 20.6.2018 16:00
4 20.6.2018 15:30 0 0 45,3 29
5 20.6.2018 15:00 0 0 44,6 29,2
6 20.6.2018 14:30 0 0 45,6 29,3
7 20.6.2018 14:00 0 0 45,2 28,9
8 20.6.2018 13:30 0 0 44,7 28,7
9 20.6.2018 13:00 0 0 45,9 28,3
10 20.6.2018 12:30 0 0 46,5 27,6
11 20.6.2018 12:00 0 0 48,5 27,2
12 20.6.2018 11:30 0 0 49,8 26,9
13 20.6.2018 11:00 0 0 51,8 26,2
14 20.6.2018 10:30 0 0 52,3 25,7
15 20.6.2018 10:00 0 0 54,1 24,8
16 20.6.2018 09:30 0 0 58 24,2
17 20.6.2018 09:00 0 0 64,1 22,8
18 20.6.2018 08:30 0 0 76,1 21,1
19 20.6.2018 08:00 1 0 83,5 19,6
20 20.6.2018 07:30 2 0 84,2 18,9
21 20.6.2018 07:00 2 0 84,1 18,7
22 20.6.2018 06:30 3 0 82,1 18,6
23 20.6.2018 06:00 4 0 81,7 18,4
24 20.6.2018 05:30 8 0 86,7 17,7
25 20.6.2018 05:00 8 0 85 17,6
26 20.6.2018 04:30 10 0 87,4 17,2
27 20.6.2018 04:00 5 0 79,6 18
28 20.6.2018 03:30 5 0 79,4 18,1
29 20.6.2018 03:00 5 0 79,3 17,9
30 20.6.2018 02:30 9 0 82,9 17,1
31 20.6.2018 02:00 10 0 79,9 17,6
32 20.6.2018 01:30 1 0 65,8 20,2
33 20.6.2018 01:00 1 0 68,8 19,5
34 20.6.2018 00:30 0 0 61,5 20,9
35 20.6.2018 00:00 3 0 71,7 19,1
36 19.6.2018 23:30 0 0 68,7 20,1
37 19.6.2018 23:00 0 0 58,1 22,2
38 19.6.2018 22:30 0 0 64,9 20,8
39 19.6.2018 22:00 0 0 62,8 21,6
40 19.6.2018 21:30 0 0 56,4 22,8
41 19.6.2018 21:00 0 0 59,3 22,2
42 19.6.2018 20:30 0 0 61,2 22,5
43 19.6.2018 20:00 0 0 60 23,2
44 19.6.2018 19:30 0 0 54,2 24,4
45 19.6.2018 19:00 0 0 51 25,5
46 19.6.2018 18:30 0 0 47,5 26,5
47 19.6.2018 18:00 0 0 46,5 26,9
48 19.6.2018 17:30 0 0 46 26,7
© 2011 Ministrstvo za kmetijstvo, gozdarstvo in prehrano. Vse pravice pridržane.